Time;durP1;ratioP1;P1;durP2;ratioP2;P2;SDS_P1;SDS_P2;PMS_P1;PMS_P2;Temp;Humidity;BMP_temperature;BMP_pressure;BME280_temperature;BME280_humidity;BME280_pressure;Samples;Min_cycle;Max_cycle;Signal;HPM_P1;HPM_P2
2021/01/28 00:00:28;;;;;;;202.55;36.70;;;;;;;9.02;73.85;98875.81;5016302;28;20065;-80
2021/01/28 00:02:55;;;;;;;330.73;40.67;;;;;;;8.87;74.64;98862.19;5021475;28;20140;-79
2021/01/28 00:05:22;;;;;;;127.78;36.22;;;;;;;9.14;73.49;98854.81;5012859;28;20069;-80
2021/01/28 00:07:49;;;;;;;204.60;37.72;;;;;;;9.07;74.16;98844.50;5021758;28;23924;-80
2021/01/28 00:10:17;;;;;;;233.73;39.83;;;;;;;8.69;75.50;98848.50;5019287;28;20415;-80
2021/01/28 00:12:44;;;;;;;191.00;36.85;;;;;;;8.95;74.44;98834.25;5003545;28;20408;-80
2021/01/28 00:15:12;;;;;;;197.82;33.95;;;;;;;8.78;74.45;98831.06;5016490;28;20444;-79
2021/01/28 00:17:39;;;;;;;199.57;36.25;;;;;;;8.72;74.72;98825.06;5002150;28;20059;-80
2021/01/28 00:20:15;;;;;;;134.55;34.40;;;;;;;8.92;74.57;98819.53;5014911;28;20168;-79
2021/01/28 00:22:42;;;;;;;133.80;34.72;;;;;;;8.77;75.28;98817.16;5020457;28;20057;-79
2021/01/28 00:25:12;;;;;;;181.35;36.13;;;;;;;8.42;76.05;98812.44;5016855;28;20135;-80
2021/01/28 00:27:38;;;;;;;159.25;33.30;;;;;;;8.42;76.10;98809.84;5019616;28;20042;-79
2021/01/28 00:30:09;;;;;;;146.35;35.22;;;;;;;8.59;75.21;98800.03;5015222;28;20549;-80
2021/01/28 00:32:37;;;;;;;243.80;36.72;;;;;;;8.47;75.83;98787.22;5015459;28;20061;-79
2021/01/28 00:35:06;;;;;;;262.75;37.67;;;;;;;8.37;76.15;98782.13;5016915;28;20411;-80
2021/01/28 00:37:33;;;;;;;193.27;35.13;;;;;;;8.28;76.25;98765.75;5019482;28;20041;-80
2021/01/28 00:39:59;;;;;;;248.15;34.40;;;;;;;8.10;76.96;98763.38;5018785;28;20483;-80
2021/01/28 00:42:26;;;;;;;345.52;39.75;;;;;;;7.79;78.10;98757.66;5015776;28;20655;-80
2021/01/28 00:44:52;;;;;;;293.65;38.80;;;;;;;8.25;76.73;98741.47;5019899;28;20141;-81
2021/01/28 00:47:18;;;;;;;393.08;44.17;;;;;;;7.84;77.92;98729.88;5019763;28;20054;-80
2021/01/28 00:49:45;;;;;;;280.65;35.17;;;;;;;7.94;77.62;98728.03;5017540;28;20056;-80
2021/01/28 00:52:14;;;;;;;240.07;37.72;;;;;;;8.05;77.38;98726.16;5015198;28;20127;-80
2021/01/28 00:54:41;;;;;;;204.52;33.75;;;;;;;8.22;76.59;98718.13;5018429;28;20136;-80
2021/01/28 00:57:08;;;;;;;304.17;38.45;;;;;;;8.02;77.45;98709.72;5003878;28;20156;-80
2021/01/28 00:59:37;;;;;;;196.35;34.42;;;;;;;8.06;76.87;98704.44;5021735;28;20060;-80
2021/01/28 01:02:05;;;;;;;259.77;36.30;;;;;;;7.82;78.07;98690.03;5000131;28;20076;-80
2021/01/28 01:04:31;;;;;;;349.08;38.20;;;;;;;7.86;77.97;98691.69;5020174;28;20572;-81
2021/01/28 01:06:58;;;;;;;106.13;33.03;;;;;;;8.05;77.51;98694.09;5019028;28;21193;-80
2021/01/28 01:09:27;;;;;;;108.85;34.17;;;;;;;8.07;77.52;98693.16;5021253;28;20404;-80
2021/01/28 01:11:58;;;;;;;104.50;34.35;;;;;;;8.11;77.14;98687.03;5010942;28;20079;-79
2021/01/28 01:14:24;;;;;;;84.18;32.33;;;;;;;8.10;77.32;98684.47;4995494;28;20453;-80
2021/01/28 01:16:51;;;;;;;71.55;30.40;;;;;;;7.96;78.05;98676.00;5011399;28;20511;-81
2021/01/28 01:19:17;;;;;;;83.63;30.20;;;;;;;8.02;77.77;98681.97;5015137;28;20140;-81
2021/01/28 01:21:44;;;;;;;61.00;28.63;;;;;;;8.42;76.17;98674.50;5019562;28;20128;-80
2021/01/28 01:24:10;;;;;;;67.22;30.30;;;;;;;8.06;78.15;98661.97;5015775;28;20444;-80
2021/01/28 01:26:37;;;;;;;64.75;28.65;;;;;;;8.20;77.30;98668.69;5021372;28;20057;-80
2021/01/28 01:29:03;;;;;;;65.75;27.50;;;;;;;8.05;76.90;98662.88;5015371;28;20057;-80
2021/01/28 01:31:30;;;;;;;64.43;25.80;;;;;;;7.96;77.50;98661.22;5016794;28;20665;-81
2021/01/28 01:33:57;;;;;;;61.45;26.88;;;;;;;8.05;77.94;98653.34;5033147;28;20076;-81
2021/01/28 01:36:23;;;;;;;63.58;27.35;;;;;;;8.24;77.19;98654.78;5016627;28;20053;-81
2021/01/28 01:38:51;;;;;;;57.72;26.40;;;;;;;8.22;76.90;98653.06;5013730;28;20068;-81
2021/01/28 01:41:17;;;;;;;53.65;25.63;;;;;;;7.97;78.19;98644.75;5029852;28;20068;-81
2021/01/28 01:43:43;;;;;;;78.40;27.85;;;;;;;8.00;77.83;98636.06;4996547;28;20088;-80
2021/01/28 01:46:14;;;;;;;55.13;24.40;;;;;;;7.92;78.47;98637.88;5019555;28;20041;-81
2021/01/28 01:48:46;;;;;;;61.50;25.58;;;;;;;8.22;77.26;98629.66;5013828;28;20141;-81
2021/01/28 01:51:18;;;;;;;;;;;;;;;8.40;76.59;98632.00;5018814;28;20037;-81
2021/01/28 01:53:59;;;;;;;62.15;25.23;;;;;;;8.39;76.41;98619.91;5014713;28;19921;-81
2021/01/28 01:56:39;;;;;;;58.00;23.52;;;;;;;8.26;76.95;98619.19;5015892;28;20059;-81
2021/01/28 01:59:29;;;;;;;46.50;23.52;;;;;;;8.40;76.48;98605.97;4999639;28;20128;-81
2021/01/28 02:02:01;;;;;;;49.85;24.73;;;;;;;8.42;76.61;98601.63;5011863;28;20053;-79
2021/01/28 02:04:29;;;;;;;58.85;24.20;;;;;;;8.24;76.79;98596.69;5025955;28;20426;-80
2021/01/28 02:07:02;;;;;;;46.78;21.75;;;;;;;8.19;76.73;98599.38;5018668;28;20053;-80
2021/01/28 02:09:28;;;;;;;44.30;22.48;;;;;;;8.44;76.30;98599.00;5016422;28;20053;-80
2021/01/28 02:11:55;;;;;;;51.45;22.60;;;;;;;8.55;75.84;98586.66;5023576;28;20069;-80
2021/01/28 02:14:21;;;;;;;45.47;21.40;;;;;;;8.43;76.16;98584.28;5016345;28;20412;-80
2021/01/28 02:16:53;;;;;;;39.17;19.67;;;;;;;8.14;77.58;98574.28;5005744;28;20049;-80
2021/01/28 02:19:40;;;;;;;36.88;17.95;;;;;;;7.91;78.38;98560.78;5032319;28;20495;-81
2021/01/28 02:22:08;;;;;;;41.00;19.27;;;;;;;8.04;77.98;98552.78;5003909;28;20056;-80
2021/01/28 02:24:41;;;;;;;36.42;20.13;;;;;;;7.54;78.95;98545.69;5016279;28;20772;-81
2021/01/28 02:27:09;;;;;;;39.42;20.90;;;;;;;7.82;79.23;98533.16;5035384;28;20057;-80
2021/01/28 02:29:36;;;;;;;34.42;18.52;;;;;;;7.88;78.60;98530.47;5005158;28;20045;-81
2021/01/28 02:32:03;;;;;;;36.80;19.73;;;;;;;7.93;77.76;98520.88;5013186;28;20046;-80
2021/01/28 02:34:32;;;;;;;50.50;20.95;;;;;;;8.16;77.62;98512.69;5028169;28;20049;-80
2021/01/28 02:36:59;;;;;;;37.78;19.42;;;;;;;7.83;78.64;98506.28;5019460;28;20067;-80
2021/01/28 02:39:28;;;;;;;41.97;18.25;;;;;;;7.64;79.07;98495.31;5022465;28;20045;-80
2021/01/28 02:42:26;;;;;;;53.30;21.70;;;;;;;7.81;78.95;98497.66;5007374;28;20105;-80
2021/01/28 02:44:53;;;;;;;42.58;19.83;;;;;;;7.66;79.05;98479.69;5002547;28;20132;-80
2021/01/28 02:47:19;;;;;;;45.03;22.15;;;;;;;7.62;79.60;98470.25;5017220;28;20096;-80
2021/01/28 02:49:46;;;;;;;37.10;20.92;;;;;;;7.63;79.41;98457.19;5019108;28;20053;-80
2021/01/28 02:52:12;;;;;;;38.53;20.77;;;;;;;7.73;78.82;98455.31;5016167;28;20041;-80
2021/01/28 02:54:44;;;;;;;41.33;21.27;;;;;;;7.71;78.68;98442.34;5021189;28;20049;-80
2021/01/28 02:57:11;;;;;;;45.20;19.85;;;;;;;7.73;78.92;98437.13;5015959;28;20148;-80
2021/01/28 02:59:38;;;;;;;37.63;20.75;;;;;;;7.89;78.41;98442.06;5003107;28;20049;-79
2021/01/28 03:02:25;;;;;;;40.10;19.35;;;;;;;7.45;79.69;98442.75;5017614;28;20053;-80
2021/01/28 03:04:52;;;;;;;38.55;20.05;;;;;;;7.79;78.99;98424.03;5018488;28;20054;-79
2021/01/28 03:07:19;;;;;;;35.63;20.42;;;;;;;8.10;77.58;98417.44;5001325;28;20116;-80
2021/01/28 03:09:45;;;;;;;29.45;19.35;;;;;;;7.78;78.35;98406.69;5020269;28;20060;-80
2021/01/28 03:12:12;;;;;;;34.05;21.42;;;;;;;7.82;78.45;98400.56;5009992;28;20041;-80
2021/01/28 03:14:38;;;;;;;36.97;21.42;;;;;;;7.75;79.09;98389.44;5020605;28;20406;-79
2021/01/28 03:17:05;;;;;;;31.02;19.10;;;;;;;7.50;79.48;98382.91;5014401;28;20068;-80
2021/01/28 03:19:32;;;;;;;38.53;19.88;;;;;;;7.59;79.90;98377.56;5021632;28;20052;-80
2021/01/28 03:21:58;;;;;;;30.27;19.08;;;;;;;7.59;79.45;98377.56;5003468;28;20143;-80
2021/01/28 03:24:24;;;;;;;34.97;19.83;;;;;;;7.86;78.30;98360.66;5019829;28;20519;-79
2021/01/28 03:26:51;;;;;;;37.08;18.40;;;;;;;7.74;79.06;98353.91;5031371;28;20053;-79
2021/01/28 03:29:18;;;;;;;29.52;17.55;;;;;;;7.68;79.14;98350.56;5017517;28;20064;-81
2021/01/28 03:31:45;;;;;;;37.75;18.00;;;;;;;7.55;79.43;98343.84;5005254;28;20418;-80
2021/01/28 03:34:12;;;;;;;31.30;17.73;;;;;;;7.76;78.51;98336.56;5018113;28;20072;-80
2021/01/28 03:36:39;;;;;;;29.42;18.02;;;;;;;7.74;78.86;98321.84;5021467;28;20049;-80
2021/01/28 03:39:06;;;;;;;35.42;18.17;;;;;;;7.46;80.09;98305.91;5018694;28;20562;-81
2021/01/28 03:41:33;;;;;;;32.15;17.35;;;;;;;7.67;78.87;98304.69;5021197;28;20037;-81
2021/01/28 03:44:00;;;;;;;37.67;20.50;;;;;;;7.95;78.66;98313.69;5016138;28;20049;-80
2021/01/28 03:46:26;;;;;;;29.58;18.45;;;;;;;7.91;78.50;98319.81;5021554;28;20042;-80
2021/01/28 03:48:53;;;;;;;31.75;18.05;;;;;;;7.67;78.93;98304.69;5014718;28;20045;-81
2021/01/28 03:51:20;;;;;;;38.63;17.98;;;;;;;7.21;80.77;98297.66;5021004;28;20061;-82
2021/01/28 03:53:47;;;;;;;32.70;17.90;;;;;;;7.63;79.62;98295.19;5010696;28;20053;-82
2021/01/28 03:56:13;;;;;;;25.75;15.98;;;;;;;7.46;79.88;98274.72;5025240;28;20049;-81
2021/01/28 03:58:41;;;;;;;37.50;18.00;;;;;;;7.62;80.42;98263.19;5016588;28;20049;-82
2021/01/28 04:01:13;;;;;;;36.85;19.77;;;;;;;7.77;78.97;98260.25;5018729;28;20050;-81
2021/01/28 04:03:39;;;;;;;31.77;17.95;;;;;;;7.83;79.06;98265.34;5012156;28;20108;-82
2021/01/28 04:06:06;;;;;;;35.72;15.95;;;;;;;7.77;79.10;98262.03;5018134;28;20049;-81
2021/01/28 04:08:32;;;;;;;28.65;14.27;;;;;;;7.86;78.38;98247.09;5003561;28;20071;-81
2021/01/28 04:10:58;;;;;;;24.60;12.40;;;;;;;7.68;79.40;98228.38;4997904;28;20050;-81
2021/01/28 04:13:25;;;;;;;33.03;12.75;;;;;;;7.89;78.96;98214.97;5019912;28;20060;-81
2021/01/28 04:15:51;;;;;;;27.15;12.30;;;;;;;7.64;79.64;98209.41;5015673;28;20061;-81
2021/01/28 04:18:18;;;;;;;26.10;12.68;;;;;;;7.66;78.48;98205.06;5018264;28;20054;-81
2021/01/28 04:20:45;;;;;;;26.25;12.63;;;;;;;7.67;79.50;98205.91;5014039;28;20157;-82
2021/01/28 04:23:12;;;;;;;28.75;13.25;;;;;;;7.92;77.86;98219.25;5020498;28;20207;-81
2021/01/28 04:25:38;;;;;;;24.73;13.40;;;;;;;8.08;77.92;98231.06;5013293;28;20145;-80
2021/01/28 04:28:05;;;;;;;24.50;12.07;;;;;;;7.96;77.95;98234.75;5021091;28;20037;-80
2021/01/28 04:30:33;;;;;;;28.92;13.30;;;;;;;8.43;76.25;98240.75;5015647;28;20053;-81
2021/01/28 04:33:02;;;;;;;28.67;11.73;;;;;;;8.07;77.21;98243.19;5017244;28;20074;-80
2021/01/28 04:35:29;;;;;;;27.25;12.20;;;;;;;8.09;77.81;98227.56;5031541;28;20046;-79
2021/01/28 04:37:56;;;;;;;20.98;11.77;;;;;;;8.25;76.64;98227.19;5021504;28;20041;-80
2021/01/28 04:40:41;;;;;;;22.63;11.45;;;;;;;8.17;76.92;98217.84;5018466;28;20049;-80
2021/01/28 04:43:30;;;;;;;21.30;9.98;;;;;;;7.93;78.03;98219.22;5015100;28;20053;-80
2021/01/28 04:46:01;;;;;;;22.42;11.20;;;;;;;8.59;75.81;98219.53;5009907;28;20049;-80
2021/01/28 04:48:30;;;;;;;16.13;9.43;;;;;;;7.98;77.87;98227.78;5018873;28;20145;-81
2021/01/28 04:50:58;;;;;;;20.73;10.20;;;;;;;8.28;76.71;98214.16;5014917;28;20049;-80
2021/01/28 04:53:34;;;;;;;25.08;11.93;;;;;;;7.78;77.44;98194.41;5021383;28;20763;-79
2021/01/28 04:56:09;;;;;;;19.63;11.10;;;;;;;8.00;77.91;98193.97;5024388;28;20054;-80
2021/01/28 04:58:36;;;;;;;20.63;10.80;;;;;;;8.21;77.05;98180.47;5016513;28;20045;-80
2021/01/28 05:01:03;;;;;;;21.27;10.30;;;;;;;8.04;77.70;98169.59;5015660;28;20409;-81
2021/01/28 05:03:36;;;;;;;14.85;8.88;;;;;;;7.65;79.22;98151.34;5019359;28;20041;-81
2021/01/28 05:06:04;;;;;;;18.35;9.70;;;;;;;8.23;77.55;98147.50;5025574;28;20105;-80
2021/01/28 05:08:31;;;;;;;20.55;12.02;;;;;;;8.41;76.79;98162.72;5014020;28;20064;-81
2021/01/28 05:10:59;;;;;;;31.08;12.25;;;;;;;8.42;76.31;98168.78;5026235;28;20072;-81
2021/01/28 05:13:31;;;;;;;19.80;10.95;;;;;;;8.29;76.52;98170.78;5010967;28;20159;-81
2021/01/28 05:16:00;;;;;;;22.27;11.77;;;;;;;8.27;76.94;98150.00;5016876;28;20057;-82
2021/01/28 05:18:27;;;;;;;19.38;10.95;;;;;;;8.31;76.33;98146.47;4998984;28;20129;-81
2021/01/28 05:21:05;;;;;;;16.80;8.57;;;;;;;8.22;76.56;98135.38;5019170;28;20048;-81
2021/01/28 05:23:36;;;;;;;13.43;8.52;;;;;;;8.18;76.90;98134.59;5026533;28;21262;-80
2021/01/28 05:26:30;;;;;;;13.88;7.50;;;;;;;8.78;75.21;98139.25;5020916;28;20041;-80
2021/01/28 05:29:13;;;;;;;13.20;7.90;;;;;;;8.09;77.16;98134.81;5017074;28;20115;-81
2021/01/28 05:31:39;;;;;;;;;;;;;;;7.97;76.92;98135.06;5034883;28;20133;-79
2021/01/28 05:34:13;;;;;;;12.88;6.75;;;;;;;7.79;78.48;98122.47;5016278;28;20441;-81
2021/01/28 05:36:51;;;;;;;12.07;6.50;;;;;;;7.88;77.90;98109.25;5013914;28;20041;-80
2021/01/28 05:39:25;;;;;;;11.75;6.28;;;;;;;7.85;77.79;98105.00;5017135;28;20113;-80
2021/01/28 05:42:03;;;;;;;13.25;6.53;;;;;;;7.85;78.05;98096.34;5019408;28;20050;-80
2021/01/28 05:44:32;;;;;;;14.70;7.93;;;;;;;7.68;78.80;98093.25;5015683;28;20057;-82
2021/01/28 05:47:24;;;;;;;20.98;8.70;;;;;;;7.87;78.08;98099.75;5023963;28;20062;-81
2021/01/28 05:49:51;;;;;;;19.42;9.90;;;;;;;8.10;77.84;98087.09;5013949;28;20360;-81
2021/01/28 05:52:30;;;;;;;17.55;9.07;;;;;;;7.87;77.91;98084.16;5019858;28;20124;-82
2021/01/28 05:55:11;;;;;;;16.88;9.77;;;;;;;7.67;78.49;98074.22;5015350;28;20148;-80
2021/01/28 05:57:49;;;;;;;18.20;9.23;;;;;;;7.72;79.04;98067.16;5024166;28;20120;-80
2021/01/28 06:00:21;;;;;;;17.80;9.32;;;;;;;7.87;78.70;98065.94;5035279;28;20064;-82
2021/01/28 06:03:23;;;;;;;20.60;11.15;;;;;;;7.70;79.27;98053.34;5004131;28;20057;-80
2021/01/28 06:06:14;;;;;;;28.63;10.63;;;;;;;7.97;78.34;98048.38;5016719;28;20399;-80
2021/01/28 06:08:59;;;;;;;21.95;11.48;;;;;;;8.19;77.13;98063.47;5032912;28;20435;-81
2021/01/28 06:11:59;;;;;;;14.20;7.70;;;;;;;7.50;79.00;98055.50;5015754;28;20049;-80
2021/01/28 06:15:00;;;;;;;13.90;7.43;;;;;;;7.81;78.40;98061.78;4986093;28;20127;-80
2021/01/28 06:17:48;;;;;;;15.55;7.88;;;;;;;7.66;78.41;98088.09;5034338;28;20067;-79
2021/01/28 06:20:24;;;;;;;15.30;8.20;;;;;;;8.15;77.33;98116.44;5031628;28;20037;-80
2021/01/28 06:23:28;;;;;;;45.72;9.30;;;;;;;8.25;75.71;98117.94;5021319;28;20068;-81
2021/01/28 06:26:23;;;;;;;13.88;8.52;;;;;;;8.82;74.53;98127.88;5028276;28;20049;-81
2021/01/28 06:28:57;;;;;;;;;;;;;;;8.81;74.33;98130.50;5022524;28;20057;-82
2021/01/28 06:31:50;;;;;;;19.85;8.50;;;;;;;9.03;73.65;98137.72;5030436;28;19928;-81
2021/01/28 06:34:32;;;;;;;24.63;7.75;;;;;;;8.94;73.37;98137.97;5017491;28;20400;-80
2021/01/28 06:37:10;;;;;;;9.55;6.22;;;;;;;8.89;74.05;98147.66;5016663;28;20064;-80
2021/01/28 06:39:51;;;;;;;12.70;5.78;;;;;;;8.36;74.91;98130.72;5004377;28;20108;-82
2021/01/28 06:42:28;;;;;;;21.05;6.25;;;;;;;8.01;76.47;98113.28;5019416;28;20041;-82
2021/01/28 06:45:04;;;;;;;11.90;5.78;;;;;;;8.40;75.94;98114.16;5034087;28;20052;-82
2021/01/28 06:47:39;;;;;;;13.73;5.75;;;;;;;8.73;74.31;98128.94;5008395;28;20060;-82
2021/01/28 06:50:14;;;;;;;7.70;5.88;;;;;;;8.85;73.96;98134.75;5024203;28;20056;-81
2021/01/28 06:52:56;;;;;;;25.73;7.05;;;;;;;8.18;75.37;98115.53;5000666;28;20041;-79
2021/01/28 06:55:28;;;;;;;9.67;6.80;;;;;;;8.49;75.33;98105.28;5029397;28;20129;-79
2021/01/28 06:58:02;;;;;;;11.73;6.70;;;;;;;8.57;74.52;98096.41;5012637;28;20809;-80
2021/01/28 07:00:38;;;;;;;13.32;6.53;;;;;;;8.23;75.35;98075.50;5022688;28;20053;-80
2021/01/28 07:03:42;;;;;;;10.70;6.20;;;;;;;8.37;74.23;98059.59;5017116;28;20101;-80
2021/01/28 07:06:44;;;;;;;9.10;6.28;;;;;;;7.90;76.63;98060.69;5037223;28;20030;-79
2021/01/28 07:09:17;;;;;;;11.07;6.55;;;;;;;8.15;75.82;98066.19;5000818;28;20046;-80
2021/01/28 07:11:44;;;;;;;7.97;5.68;;;;;;;7.94;77.17;98077.06;5011182;28;20045;-81
2021/01/28 07:14:18;;;;;;;26.52;7.20;;;;;;;7.58;77.13;98076.16;5021111;28;20049;-79
2021/01/28 07:16:58;;;;;;;37.97;8.07;;;;;;;7.82;76.46;98071.25;4998527;28;20061;-79
2021/01/28 07:19:31;;;;;;;29.00;7.47;;;;;;;8.03;76.72;98084.66;5018440;28;20056;-78
2021/01/28 07:22:16;;;;;;;14.57;8.57;;;;;;;7.94;76.24;98098.75;5000885;28;20046;-78
2021/01/28 07:24:42;;;;;;;100.28;11.75;;;;;;;7.86;77.38;98088.50;5015671;28;20069;-78
2021/01/28 07:27:12;;;;;;;62.53;11.70;;;;;;;7.94;76.51;98075.34;5017852;28;20079;-79
2021/01/28 07:29:44;;;;;;;22.52;9.60;;;;;;;7.91;76.45;98077.16;5015317;28;20041;-79
2021/01/28 07:32:31;;;;;;;16.73;9.52;;;;;;;7.95;75.68;98076.19;5021013;28;20117;-80
2021/01/28 07:35:26;;;;;;;16.70;9.85;;;;;;;8.02;76.71;98078.59;5003267;28;20049;-80
2021/01/28 07:37:54;;;;;;;17.17;10.57;;;;;;;8.51;74.89;98075.72;5014118;28;20052;-79
2021/01/28 07:40:58;;;;;;;20.58;10.98;;;;;;;7.62;76.43;98065.66;5032780;28;20060;-80
2021/01/28 07:43:30;;;;;;;20.02;10.60;;;;;;;8.54;74.68;98054.81;5012831;28;20136;-79
2021/01/28 07:46:34;;;;;;;19.45;9.68;;;;;;;7.89;76.51;98054.63;5030477;28;20041;-79
2021/01/28 07:49:15;;;;;;;19.98;11.27;;;;;;;7.95;75.82;98052.78;5024647;28;20523;-80
2021/01/28 07:51:47;;;;;;;27.17;12.20;;;;;;;8.34;74.62;98057.09;5018690;28;20095;-80
2021/01/28 07:54:35;;;;;;;20.52;11.48;;;;;;;8.42;74.52;98043.88;5028917;28;20046;-79
2021/01/28 07:57:08;;;;;;;23.52;12.23;;;;;;;8.08;75.04;98042.06;5029177;28;20472;-78
2021/01/28 07:59:52;;;;;;;25.45;13.50;;;;;;;8.40;74.94;98049.09;5013573;28;20164;-80
2021/01/28 08:02:26;;;;;;;33.17;14.38;;;;;;;8.00;75.47;98054.41;5022100;28;20064;-79
2021/01/28 08:04:57;;;;;;;25.42;13.38;;;;;;;8.08;76.22;98052.47;5012834;28;20045;-79
2021/01/28 08:07:38;;;;;;;39.00;14.15;;;;;;;7.50;77.15;98060.72;5018106;28;20116;-80
2021/01/28 08:10:25;;;;;;;28.98;14.82;;;;;;;8.13;76.27;98067.97;5011967;28;20041;-79
2021/01/28 08:12:55;;;;;;;38.28;14.57;;;;;;;7.99;76.07;98083.03;5015721;28;20042;-78
2021/01/28 08:15:32;;;;;;;47.85;16.73;;;;;;;8.03;75.70;98085.53;5015934;28;20124;-78
2021/01/28 08:18:13;;;;;;;37.25;15.60;;;;;;;7.77;77.10;98091.28;5017649;28;20053;-78
2021/01/28 08:20:39;;;;;;;38.30;16.38;;;;;;;7.92;76.21;98089.25;5017328;28;20045;-80
2021/01/28 08:23:14;;;;;;;36.58;16.85;;;;;;;8.19;74.74;98099.91;5034508;28;20045;-78
2021/01/28 08:25:56;;;;;;;30.25;15.30;;;;;;;7.77;75.61;98106.06;5014628;28;20050;-79
2021/01/28 08:28:27;;;;;;;40.28;17.45;;;;;;;8.17;75.23;98096.47;5016311;28;20401;-78
2021/01/28 08:31:03;;;;;;;62.85;17.45;;;;;;;7.87;76.60;98097.16;5010970;28;20108;-78
2021/01/28 08:33:31;;;;;;;35.75;15.77;;;;;;;8.07;75.84;98094.97;5016264;28;20056;-80
2021/01/28 08:36:01;;;;;;;32.00;16.55;;;;;;;8.10;74.81;98092.31;5021351;28;20046;-79
2021/01/28 08:38:33;;;;;;;27.50;13.90;;;;;;;7.97;75.44;98087.41;5018866;28;20060;-79
2021/01/28 08:41:14;;;;;;;25.13;14.00;;;;;;;8.30;74.82;98091.84;5015394;28;20125;-79
2021/01/28 08:43:41;;;;;;;23.70;12.90;;;;;;;8.01;75.79;98089.06;5015657;28;20424;-79
2021/01/28 08:46:20;;;;;;;29.75;13.90;;;;;;;8.35;74.39;98084.78;5030256;28;20448;-79
2021/01/28 08:48:48;;;;;;;20.98;12.23;;;;;;;8.67;73.76;98087.47;5017010;28;20123;-78
2021/01/28 08:51:22;;;;;;;23.40;12.73;;;;;;;8.67;73.11;98089.22;5018105;28;20049;-78
2021/01/28 08:54:00;;;;;;;20.83;11.88;;;;;;;8.35;74.43;98082.19;5020429;28;20060;-78
2021/01/28 08:56:33;;;;;;;16.90;11.65;;;;;;;9.08;72.37;98081.16;5015242;28;20068;-78
2021/01/28 08:59:04;;;;;;;18.52;11.95;;;;;;;9.07;72.42;98087.25;5035870;28;20081;-79
2021/01/28 09:01:46;;;;;;;18.52;11.15;;;;;;;9.06;72.35;98092.53;4995601;28;20057;-78
2021/01/28 09:04:24;;;;;;;17.08;11.32;;;;;;;9.22;71.83;98099.00;5018824;28;20041;-79
2021/01/28 09:06:51;;;;;;;19.55;10.65;;;;;;;8.97;72.32;98116.22;5009599;28;20061;-79
2021/01/28 09:09:24;;;;;;;17.08;11.35;;;;;;;8.85;72.51;98119.97;5019299;28;20045;-79
2021/01/28 09:12:27;;;;;;;12.50;9.60;;;;;;;8.95;72.69;98123.19;5015145;28;20068;-78
2021/01/28 09:15:10;;;;;;;;;;;;;;;9.25;71.97;98117.19;5017563;28;20045;-79
2021/01/28 09:17:40;;;;;;;15.88;10.07;;;;;;;9.37;71.49;98122.03;5013748;28;20414;-77
2021/01/28 09:20:18;;;;;;;14.60;10.10;;;;;;;9.28;71.47;98122.31;5014636;28;20081;-77
2021/01/28 09:22:45;;;;;;;14.10;10.68;;;;;;;9.58;70.99;98125.81;4998200;28;20049;-78
2021/01/28 09:25:19;;;;;;;14.30;9.65;;;;;;;9.27;70.57;98135.34;5004000;28;20049;-80
2021/01/28 09:28:10;;;;;;;13.15;9.65;;;;;;;9.61;71.08;98136.13;4984008;28;20473;-78
2021/01/28 09:30:46;;;;;;;12.18;9.15;;;;;;;9.53;71.24;98135.50;5009863;28;20049;-80
2021/01/28 09:33:40;;;;;;;11.77;8.27;;;;;;;9.53;70.93;98131.16;5017487;28;20049;-77
2021/01/28 09:36:29;;;;;;;13.10;9.30;;;;;;;9.77;70.61;98137.44;5035142;28;20064;-79
2021/01/28 09:39:27;;;;;;;12.55;9.98;;;;;;;9.59;70.17;98128.34;5030746;28;20198;-81
2021/01/28 09:41:54;;;;;;;11.65;9.52;;;;;;;9.87;70.25;98143.22;5019621;28;20256;-78
2021/01/28 09:44:47;;;;;;;11.30;9.43;;;;;;;10.00;70.04;98140.19;5004179;28;20427;-82
2021/01/28 09:47:17;;;;;;;13.32;9.95;;;;;;;9.93;69.95;98154.31;5022120;28;20037;-80
2021/01/28 09:49:49;;;;;;;13.23;9.73;;;;;;;10.04;69.87;98152.25;5016200;28;20081;-79
2021/01/28 09:52:22;;;;;;;;;;;;;;;10.22;69.75;98147.41;5011193;28;20053;-77
2021/01/28 09:54:51;;;;;;;13.63;10.05;;;;;;;10.34;69.61;98145.28;5011277;28;19951;-79
2021/01/28 09:57:18;;;;;;;14.85;10.20;;;;;;;10.49;69.19;98136.13;5035315;28;20148;-78
2021/01/28 09:59:46;;;;;;;14.55;10.07;;;;;;;10.34;69.36;98140.06;5016526;28;20057;-79
2021/01/28 10:02:19;;;;;;;14.05;9.85;;;;;;;10.61;69.05;98140.94;5003745;28;20057;-78
2021/01/28 10:04:46;;;;;;;14.80;10.32;;;;;;;9.84;69.89;98136.31;4995602;28;20045;-79
2021/01/28 10:07:14;;;;;;;16.00;10.98;;;;;;;10.12;69.86;98146.78;5003286;28;20485;-79
2021/01/28 10:09:43;;;;;;;15.57;11.05;;;;;;;9.67;70.11;98153.38;5013018;28;20053;-79
2021/01/28 10:12:12;;;;;;;15.35;10.07;;;;;;;10.09;70.16;98167.75;5017546;28;20053;-78
2021/01/28 10:14:40;;;;;;;11.27;7.55;;;;;;;9.89;70.21;98162.28;5014723;28;20055;-78
2021/01/28 10:17:06;;;;;;;11.25;8.20;;;;;;;10.27;70.04;98163.78;5015918;28;20085;-79
2021/01/28 10:19:33;;;;;;;12.88;8.20;;;;;;;10.35;69.25;98156.59;4999364;28;20045;-78
2021/01/28 10:22:00;;;;;;;10.07;7.78;;;;;;;10.20;70.08;98173.56;5018444;28;20095;-78
2021/01/28 10:24:27;;;;;;;12.40;8.32;;;;;;;10.29;69.76;98170.66;5003548;28;20086;-78
2021/01/28 10:26:53;;;;;;;11.07;8.55;;;;;;;9.81;70.85;98165.13;5023661;28;20045;-79
2021/01/28 10:29:20;;;;;;;9.73;8.15;;;;;;;10.16;69.45;98164.13;5005722;28;20068;-79
2021/01/28 10:31:46;;;;;;;8.32;7.03;;;;;;;10.42;69.27;98173.75;4996438;28;20076;-80
2021/01/28 10:34:14;;;;;;;12.43;8.57;;;;;;;10.16;69.52;98169.34;5019562;28;20123;-78
2021/01/28 10:36:41;;;;;;;12.25;7.13;;;;;;;10.05;70.12;98158.31;5016152;28;20061;-80
2021/01/28 10:39:07;;;;;;;7.13;6.00;;;;;;;10.33;69.80;98174.88;5026190;28;20045;-79
2021/01/28 10:41:34;;;;;;;8.07;6.90;;;;;;;10.57;69.19;98172.41;5017366;28;20041;-78
2021/01/28 10:44:01;;;;;;;7.20;6.40;;;;;;;10.87;68.15;98174.91;5020304;28;20058;-79
2021/01/28 10:46:27;;;;;;;8.45;7.43;;;;;;;10.90;68.16;98179.16;5016919;28;20095;-79
2021/01/28 10:48:54;;;;;;;11.73;7.45;;;;;;;11.04;67.73;98182.16;5006051;28;20041;-78
2021/01/28 10:51:22;;;;;;;9.57;7.15;;;;;;;10.43;68.69;98172.84;5017229;28;20052;-78
2021/01/28 10:53:48;;;;;;;8.02;6.55;;;;;;;10.77;68.33;98173.50;5033758;28;20124;-80
2021/01/28 10:56:14;;;;;;;9.98;6.85;;;;;;;10.90;68.03;98177.41;5016514;28;20111;-80
2021/01/28 10:58:40;;;;;;;10.52;8.32;;;;;;;10.75;67.86;98171.81;5015138;28;20045;-82
2021/01/28 11:01:07;;;;;;;8.40;7.60;;;;;;;10.79;68.39;98168.22;5020545;28;20472;-81
2021/01/28 11:03:36;;;;;;;9.02;6.35;;;;;;;10.39;68.59;98164.28;5014767;28;20049;-81
2021/01/28 11:06:03;;;;;;;7.85;7.05;;;;;;;10.48;68.93;98163.13;5023033;28;20132;-77
2021/01/28 11:08:30;;;;;;;8.15;6.68;;;;;;;9.95;70.81;98162.09;5002448;28;20045;-79
2021/01/28 11:10:57;;;;;;;6.63;6.03;;;;;;;10.39;69.51;98164.28;5003694;28;20053;-78
2021/01/28 11:13:23;;;;;;;6.45;5.63;;;;;;;10.55;68.95;98167.22;5014391;28;20053;-78
2021/01/28 11:15:50;;;;;;;7.38;5.35;;;;;;;9.77;69.74;98170.47;5018476;28;20230;-77
2021/01/28 11:18:17;;;;;;;18.63;6.90;;;;;;;9.82;70.21;98177.28;5018655;28;20073;-80
2021/01/28 11:20:43;;;;;;;6.65;5.63;;;;;;;10.25;69.21;98176.03;5018419;28;20045;-79
2021/01/28 11:23:10;;;;;;;9.50;6.13;;;;;;;10.25;69.03;98169.06;5003360;28;20059;-79
2021/01/28 11:25:37;;;;;;;8.13;6.63;;;;;;;10.21;69.58;98167.44;5002884;28;20176;-80
2021/01/28 11:28:04;;;;;;;9.75;7.70;;;;;;;10.39;69.63;98168.63;5014671;28;20463;-79
2021/01/28 11:30:33;;;;;;;13.93;9.45;;;;;;;10.54;69.61;98168.16;5016142;28;20128;-78
2021/01/28 11:33:02;;;;;;;6.20;5.60;;;;;;;10.69;69.74;98164.22;5008086;28;20110;-77
2021/01/28 11:35:33;;;;;;;8.85;5.88;;;;;;;11.14;68.46;98169.66;5020830;28;20088;-80
2021/01/28 11:38:00;;;;;;;6.60;5.53;;;;;;;11.17;68.37;98169.56;5006196;28;20057;-79
2021/01/28 11:40:29;;;;;;;6.60;5.90;;;;;;;11.22;67.59;98178.09;5016327;28;20523;-82
2021/01/28 11:42:57;;;;;;;6.88;5.75;;;;;;;11.23;67.47;98180.66;4998326;28;20042;-81
2021/01/28 11:45:29;;;;;;;4.40;4.00;;;;;;;11.12;67.74;98171.47;5020116;28;20204;-82
2021/01/28 11:47:56;;;;;;;7.40;4.85;;;;;;;11.38;67.29;98159.19;5017654;28;20404;-80
2021/01/28 11:50:24;;;;;;;4.70;4.07;;;;;;;11.05;68.19;98165.59;4997915;28;20072;-81
2021/01/28 11:52:51;;;;;;;5.88;4.13;;;;;;;11.38;67.33;98167.03;5028498;28;20061;-82